Time;durP1;ratioP1;P1;durP2;ratioP2;P2;SDS_P1;SDS_P2;PMS_P1;PMS_P2;Temp;Humidity;BMP_temperature;BMP_pressure;BME280_temperature;BME280_humidity;BME280_pressure;Samples;Min_cycle;Max_cycle;Signal;HPM_P1;HPM_P2
2023/05/05 00:02:23;;;;;;;24.57;15.58;;;31.00;85.00;;;;;;1915772;74;21529;-85
2023/05/05 00:04:54;;;;;;;18.65;14.65;;;31.00;84.60;;;;;;1923023;73;21533;-84
2023/05/05 00:07:37;;;;;;;22.20;16.00;;;31.00;84.30;;;;;;1913996;74;21088;-85
2023/05/05 00:10:08;;;;;;;26.17;14.78;;;31.00;84.10;;;;;;1915718;74;21096;-83
2023/05/05 00:12:40;;;;;;;21.30;15.18;;;31.00;85.00;;;;;;1918570;73;21264;-83
2023/05/05 00:15:11;;;;;;;21.10;14.40;;;31.10;84.30;;;;;;1924203;73;21156;-85
2023/05/05 00:17:42;;;;;;;19.23;14.78;;;31.10;83.80;;;;;;1918993;74;21209;-83
2023/05/05 00:20:13;;;;;;;18.20;14.05;;;31.10;83.90;;;;;;1923689;74;21096;-84
2023/05/05 00:22:44;;;;;;;18.65;13.90;;;31.20;83.60;;;;;;1923961;73;21130;-83
2023/05/05 00:25:16;;;;;;;21.35;15.03;;;31.20;83.30;;;;;;1918474;74;21242;-84
2023/05/05 00:27:47;;;;;;;21.05;14.47;;;31.20;83.40;;;;;;1915565;74;21159;-83
2023/05/05 00:30:18;;;;;;;18.25;14.20;;;31.20;83.10;;;;;;1916553;74;21171;-83
2023/05/05 00:32:50;;;;;;;20.20;13.70;;;31.20;82.90;;;;;;1915004;74;21101;-84
2023/05/05 00:35:21;;;;;;;23.27;16.60;;;31.30;82.80;;;;;;1932609;73;21107;-85
2023/05/05 00:37:53;;;;;;;23.32;15.75;;;31.30;83.00;;;;;;1917636;74;21603;-85
2023/05/05 00:40:51;;;;;;;20.12;14.60;;;31.30;82.90;;;;;;1916812;74;21738;-75
2023/05/05 00:43:22;;;;;;;23.22;14.65;;;31.40;82.50;;;;;;1918651;74;21069;-74
2023/05/05 00:45:58;;;;;;;21.15;15.20;;;31.40;82.20;;;;;;1918373;74;21396;-73
2023/05/05 00:48:31;;;;;;;19.32;16.10;;;31.50;82.10;;;;;;1906253;74;21167;-74
2023/05/05 00:51:07;;;;;;;21.27;15.70;;;31.40;81.80;;;;;;1916577;74;21148;-73
2023/05/05 00:53:38;;;;;;;23.80;15.90;;;31.50;82.10;;;;;;1907268;74;21144;-75
2023/05/05 00:56:09;;;;;;;22.60;15.08;;;31.60;82.30;;;;;;1905728;74;21540;-76
2023/05/05 00:58:44;;;;;;;20.92;15.72;;;31.60;81.80;;;;;;1902981;74;21214;-73
2023/05/05 01:01:15;;;;;;;25.57;16.32;;;31.60;81.90;;;;;;1860523;76;21092;-76
2023/05/05 01:03:49;;;;;;;28.65;16.23;;;31.70;81.70;;;;;;1910399;74;21608;-76
2023/05/05 01:06:29;;;;;;;25.15;16.85;;;31.70;81.50;;;;;;1908000;74;21222;-75
2023/05/05 01:09:31;;;;;;;142.62;24.57;;;31.80;81.50;;;;;;1903458;74;21097;-76
2023/05/05 01:12:08;;;;;;;41.58;18.20;;;31.90;81.40;;;;;;1903405;74;21588;-75
2023/05/05 01:14:42;;;;;;;;;;;32.00;81.00;;;;;;1905373;74;21936;-75
2023/05/05 01:17:24;;;;;;;25.02;15.43;;;32.00;80.50;;;;;;1901746;74;20178;-76
2023/05/05 01:20:19;;;;;;;23.73;15.28;;;32.00;80.50;;;;;;1902182;75;21096;-75
2023/05/05 01:22:59;;;;;;;22.70;14.80;;;32.10;80.60;;;;;;1909449;74;21155;-76
2023/05/05 01:25:58;;;;;;;24.18;14.87;;;32.20;80.20;;;;;;1912374;74;21600;-75
2023/05/05 01:28:48;;;;;;;18.75;14.35;;;32.30;79.50;;;;;;1905550;74;21187;-74
2023/05/05 01:31:36;;;;;;;18.40;14.28;;;32.40;79.40;;;;;;1904285;74;21144;-74
2023/05/05 01:34:09;;;;;;;23.42;14.05;;;32.40;79.30;;;;;;1904233;74;21124;-73
2023/05/05 01:36:43;;;;;;;27.77;14.18;;;32.50;79.60;;;;;;1901991;74;21159;-75
2023/05/05 01:39:16;;;;;;;25.60;15.23;;;32.60;78.60;;;;;;1903286;74;21121;-76
2023/05/05 01:41:50;;;;;;;19.55;14.65;;;32.60;78.70;;;;;;1920121;74;21057;-75
2023/05/05 01:44:21;;;;;;;22.85;13.83;;;32.70;78.50;;;;;;1905710;74;21209;-76
2023/05/05 01:47:11;;;;;;;20.32;14.00;;;32.80;78.20;;;;;;1915673;74;21124;-76
2023/05/05 01:50:11;;;;;;;18.73;13.53;;;33.00;77.30;;;;;;1901055;74;21152;-75
2023/05/05 01:52:45;;;;;;;22.82;14.10;;;33.00;76.90;;;;;;1906699;74;21096;-76
2023/05/05 01:55:18;;;;;;;17.40;13.93;;;33.10;76.50;;;;;;1904816;74;21108;-76
2023/05/05 01:57:50;;;;;;;20.35;13.78;;;33.20;76.30;;;;;;1917148;74;21133;-76
2023/05/05 02:00:24;;;;;;;19.85;13.65;;;33.30;76.80;;;;;;1906222;74;21587;-74
2023/05/05 02:02:56;;;;;;;19.80;14.03;;;33.40;76.00;;;;;;1903453;73;21171;-75
2023/05/05 02:05:29;;;;;;;20.60;14.23;;;33.40;75.50;;;;;;1909698;74;21599;-75
2023/05/05 02:08:02;;;;;;;19.55;14.78;;;33.60;74.80;;;;;;1901572;74;21167;-75
2023/05/05 02:10:34;;;;;;;18.37;13.68;;;33.70;74.50;;;;;;1902702;74;21241;-74
2023/05/05 02:13:17;;;;;;;20.80;14.15;;;33.80;74.10;;;;;;1918981;74;21766;-74
2023/05/05 02:16:08;;;;;;;27.58;18.12;;;33.90;73.90;;;;;;1902773;74;21132;-72
2023/05/05 02:18:40;;;;;;;19.57;14.13;;;34.00;73.70;;;;;;1905430;74;21672;-73
2023/05/05 02:21:13;;;;;;;24.70;15.70;;;34.10;74.10;;;;;;1902898;74;21184;-74
2023/05/05 02:23:50;;;;;;;24.00;14.58;;;34.20;73.50;;;;;;1909045;74;21134;-77
2023/05/05 02:26:20;;;;;;;;;;;34.30;73.00;;;;;;1906757;74;21181;-79
2023/05/05 02:29:12;;;;;;;22.05;13.40;;;34.40;72.00;;;;;;1901634;74;20186;-75
2023/05/05 02:31:48;;;;;;;19.20;14.10;;;34.50;71.70;;;;;;1907110;74;21133;-75
2023/05/05 02:34:41;;;;;;;20.75;14.45;;;34.60;71.00;;;;;;1901678;74;21267;-75
2023/05/05 02:37:15;;;;;;;21.00;16.00;;;34.70;71.00;;;;;;1869586;75;21129;-75
2023/05/05 02:40:00;;;;;;;22.58;14.58;;;34.80;70.90;;;;;;1905563;74;21608;-77
2023/05/05 02:42:34;;;;;;;17.07;13.65;;;34.80;69.70;;;;;;1908167;74;21205;-80
2023/05/05 02:45:22;;;;;;;16.30;14.03;;;35.00;69.50;;;;;;1904981;74;21092;-75
2023/05/05 02:47:49;;;;;;;19.75;14.25;;;35.10;68.60;;;;;;1901848;74;21215;-75
2023/05/05 02:50:21;;;;;;;28.23;15.18;;;35.10;69.00;;;;;;1907116;74;21179;-77
2023/05/05 02:52:52;;;;;;;26.33;15.50;;;35.10;69.00;;;;;;1903014;74;21145;-75
2023/05/05 02:55:24;;;;;;;16.02;13.32;;;35.20;68.80;;;;;;1908319;74;21714;-75
2023/05/05 02:58:07;;;;;;;18.00;13.22;;;35.30;67.90;;;;;;1825053;77;21661;-77
2023/05/05 03:00:43;;;;;;;18.87;13.55;;;35.40;67.70;;;;;;1903636;74;21096;-75
2023/05/05 03:03:32;;;;;;;17.25;13.15;;;35.50;67.80;;;;;;1905001;74;21694;-75
2023/05/05 03:06:12;;;;;;;17.48;13.10;;;35.60;67.50;;;;;;1907388;74;21162;-75
2023/05/05 03:08:58;;;;;;;21.12;13.18;;;35.80;65.30;;;;;;1905051;74;21109;-77
2023/05/05 03:11:37;;;;;;;19.92;14.47;;;35.80;66.20;;;;;;1903730;74;21184;-78
2023/05/05 03:14:13;;;;;;;14.90;12.93;;;35.90;64.80;;;;;;1852881;77;21112;-80
2023/05/05 03:16:47;;;;;;;18.30;13.93;;;36.00;64.90;;;;;;1908897;74;21152;-76
2023/05/05 03:19:23;;;;;;;18.55;12.90;;;36.00;65.10;;;;;;1908241;74;21209;-77
2023/05/05 03:21:55;;;;;;;19.70;12.73;;;36.10;64.50;;;;;;1906710;74;21218;-76
2023/05/05 03:24:27;;;;;;;16.73;13.85;;;36.10;64.50;;;;;;1904698;74;21144;-76
2023/05/05 03:27:00;;;;;;;17.37;13.28;;;36.10;64.40;;;;;;1912423;74;21187;-77
2023/05/05 03:29:31;;;;;;;20.15;13.20;;;36.10;64.70;;;;;;1909494;74;21121;-75
2023/05/05 03:32:03;;;;;;;31.42;13.90;;;36.20;63.90;;;;;;1902857;74;21143;-75
2023/05/05 03:34:36;;;;;;;20.92;13.10;;;36.20;64.60;;;;;;1905092;74;21612;-77
2023/05/05 03:37:26;;;;;;;18.45;14.25;;;36.20;63.60;;;;;;1906007;74;21121;-77
2023/05/05 03:39:57;;;;;;;15.88;13.32;;;36.30;63.60;;;;;;1901749;75;21128;-77
2023/05/05 03:42:29;;;;;;;16.90;13.10;;;36.40;63.00;;;;;;1910137;74;21657;-77
2023/05/05 03:45:00;;;;;;;21.48;13.58;;;36.60;62.50;;;;;;1906923;74;21451;-75
2023/05/05 03:47:32;;;;;;;25.43;16.32;;;36.60;62.90;;;;;;1907213;74;21097;-77
2023/05/05 03:50:03;;;;;;;17.85;13.62;;;36.70;62.80;;;;;;1907160;73;21115;-75
2023/05/05 03:52:34;;;;;;;15.90;12.40;;;36.80;63.60;;;;;;1904704;74;21545;-77
2023/05/05 03:55:05;;;;;;;17.85;13.35;;;;;;;;;;1910266;74;21237;-75
2023/05/05 03:57:36;;;;;;;17.92;13.08;;;36.90;60.90;;;;;;1914056;74;21153;-76
2023/05/05 04:00:13;;;;;;;15.83;12.15;;;37.00;60.90;;;;;;1921066;73;21826;-75
2023/05/05 04:02:44;;;;;;;17.10;12.53;;;37.00;61.90;;;;;;1915853;74;21078;-75
2023/05/05 04:05:16;;;;;;;17.32;12.93;;;37.10;60.40;;;;;;1913764;74;21159;-74
2023/05/05 04:07:47;;;;;;;18.00;12.58;;;37.10;60.40;;;;;;1913320;74;21194;-77
2023/05/05 04:10:18;;;;;;;25.37;14.60;;;37.20;60.40;;;;;;1920636;74;21915;-78
2023/05/05 04:12:50;;;;;;;16.95;11.83;;;37.20;59.80;;;;;;1913195;75;21590;-74
2023/05/05 04:15:21;;;;;;;17.95;12.47;;;37.20;59.90;;;;;;1914444;74;21696;-76
2023/05/05 04:17:53;;;;;;;16.00;13.05;;;37.20;59.70;;;;;;1928820;74;21080;-74
2023/05/05 04:20:26;;;;;;;17.73;12.63;;;37.30;59.60;;;;;;1932432;74;21642;-77
2023/05/05 04:22:59;;;;;;;19.20;14.53;;;37.30;60.40;;;;;;1914438;74;21146;-76
2023/05/05 04:25:31;;;;;;;16.17;12.78;;;37.30;59.20;;;;;;1914210;73;21167;-77
2023/05/05 04:28:02;;;;;;;15.38;13.45;;;37.40;59.20;;;;;;1913928;74;21143;-78
2023/05/05 04:30:33;;;;;;;16.80;13.50;;;37.40;58.70;;;;;;1912200;74;21729;-76
2023/05/05 04:33:07;;;;;;;15.60;13.48;;;37.50;58.50;;;;;;1917954;74;21062;-78
2023/05/05 04:35:39;;;;;;;16.40;12.93;;;37.40;57.80;;;;;;1870148;76;21152;-76
2023/05/05 04:38:11;;;;;;;19.52;13.22;;;37.40;58.40;;;;;;1915008;74;21894;-78
2023/05/05 04:40:42;;;;;;;20.80;15.43;;;37.50;59.40;;;;;;1913031;75;21449;-75
2023/05/05 04:43:14;;;;;;;14.58;12.63;;;37.50;58.10;;;;;;1912960;75;21151;-78
2023/05/05 04:45:53;;;;;;;14.95;12.60;;;37.60;58.10;;;;;;1913189;75;21209;-78
2023/05/05 04:48:24;;;;;;;14.70;12.70;;;37.70;58.10;;;;;;1913648;74;21160;-76
2023/05/05 04:50:55;;;;;;;16.95;12.75;;;37.70;57.40;;;;;;1912475;75;21109;-78
2023/05/05 04:53:27;;;;;;;20.10;14.87;;;37.80;57.50;;;;;;1923571;74;21120;-78
2023/05/05 04:55:59;;;;;;;17.05;13.18;;;37.80;57.70;;;;;;1905973;74;21125;-74
2023/05/05 04:58:31;;;;;;;16.40;12.70;;;37.90;57.40;;;;;;1904370;74;21202;-74
2023/05/05 05:01:02;;;;;;;14.83;12.65;;;38.00;57.30;;;;;;1902250;74;21343;-77
2023/05/05 05:03:36;;;;;;;16.20;12.60;;;38.00;56.40;;;;;;1908287;74;21136;-76
2023/05/05 05:06:08;;;;;;;16.45;12.25;;;38.00;56.50;;;;;;1902086;74;21126;-76
2023/05/05 05:08:39;;;;;;;18.07;14.28;;;38.00;56.00;;;;;;1904237;73;21166;-76
2023/05/05 05:11:11;;;;;;;17.45;14.43;;;38.10;55.40;;;;;;1901706;74;21128;-77
2023/05/05 05:13:42;;;;;;;26.85;21.20;;;38.10;55.30;;;;;;1909712;74;21627;-75
2023/05/05 05:16:16;;;;;;;14.05;12.40;;;38.00;55.40;;;;;;1903550;74;21085;-78
2023/05/05 05:18:47;;;;;;;14.75;11.57;;;38.00;55.30;;;;;;1903821;74;21182;-76
2023/05/05 05:21:18;;;;;;;13.70;11.48;;;38.00;52.50;;;;;;1900982;74;21140;-76
2023/05/05 05:23:50;;;;;;;15.68;12.15;;;38.00;54.70;;;;;;1928377;74;21069;-78
2023/05/05 05:26:21;;;;;;;17.23;13.70;;;38.00;55.00;;;;;;1930695;74;21137;-76
2023/05/05 05:28:52;;;;;;;15.43;13.20;;;38.10;55.00;;;;;;1903017;74;21124;-75
2023/05/05 05:31:23;;;;;;;15.10;12.50;;;38.20;55.30;;;;;;1902012;74;21104;-76
2023/05/05 05:33:55;;;;;;;19.02;15.43;;;38.40;54.70;;;;;;1902069;74;21127;-78
2023/05/05 05:36:26;;;;;;;16.00;13.58;;;38.50;54.40;;;;;;1904525;75;21143;-76
2023/05/05 05:38:57;;;;;;;20.30;17.48;;;38.50;54.40;;;;;;1903147;74;21109;-77
2023/05/05 05:41:30;;;;;;;15.03;13.00;;;38.50;54.80;;;;;;1905273;74;21197;-76
2023/05/05 05:44:01;;;;;;;19.15;13.53;;;38.50;54.20;;;;;;1903389;74;21068;-77
2023/05/05 05:46:32;;;;;;;17.98;14.53;;;38.60;54.10;;;;;;1908240;74;21812;-78
2023/05/05 05:49:04;;;;;;;15.90;13.80;;;39.60;54.80;;;;;;1900400;75;21120;-75
2023/05/05 05:51:35;;;;;;;16.00;14.20;;;38.50;53.60;;;;;;1903409;74;21198;-75
2023/05/05 05:54:06;;;;;;;15.80;13.03;;;38.70;53.90;;;;;;1902507;74;21132;-76
2023/05/05 05:56:38;;;;;;;17.40;13.55;;;38.70;53.90;;;;;;1928014;73;21194;-80
2023/05/05 05:59:10;;;;;;;16.62;12.20;;;38.70;53.60;;;;;;1928923;73;21590;-75
2023/05/05 06:01:41;;;;;;;17.05;12.53;;;38.70;52.80;;;;;;1926694;73;21128;-76
2023/05/05 06:04:12;;;;;;;14.68;12.53;;;38.60;52.70;;;;;;1928690;73;21080;-75
2023/05/05 06:06:43;;;;;;;14.60;12.47;;;38.60;52.70;;;;;;1923023;73;21144;-74
2023/05/05 06:09:15;;;;;;;14.63;12.45;;;38.60;52.70;;;;;;1945842;73;21582;-76
2023/05/05 06:11:46;;;;;;;15.50;12.33;;;38.70;52.50;;;;;;1931095;73;21168;-78
2023/05/05 06:14:17;;;;;;;14.80;12.03;;;38.70;52.70;;;;;;1929067;73;21500;-77
2023/05/05 06:16:49;;;;;;;15.43;12.68;;;38.80;52.10;;;;;;1923913;73;21152;-77
2023/05/05 06:19:20;;;;;;;14.98;12.20;;;38.80;52.00;;;;;;1929038;74;21170;-74
2023/05/05 06:21:52;;;;;;;16.00;11.60;;;38.80;50.60;;;;;;1926609;73;21572;-78
2023/05/05 06:24:23;;;;;;;13.55;11.08;;;38.80;51.50;;;;;;1922918;74;21563;-76
2023/05/05 06:26:55;;;;;;;14.30;11.20;;;38.70;51.70;;;;;;1929313;74;21593;-76
2023/05/05 06:29:26;;;;;;;14.28;10.88;;;38.70;52.30;;;;;;1902016;75;21654;-76
2023/05/05 06:31:59;;;;;;;12.88;11.33;;;38.70;51.70;;;;;;1879682;76;21365;-75
2023/05/05 06:34:31;;;;;;;11.65;10.48;;;38.80;52.20;;;;;;1893995;74;21155;-75
2023/05/05 06:37:02;;;;;;;12.23;10.72;;;38.70;51.20;;;;;;1940036;73;21234;-75
2023/05/05 06:39:33;;;;;;;12.55;11.12;;;38.70;52.10;;;;;;1929027;73;21128;-78
2023/05/05 06:42:05;;;;;;;13.28;11.60;;;38.60;52.10;;;;;;1922543;74;21166;-77
2023/05/05 06:44:36;;;;;;;11.65;10.45;;;38.60;52.20;;;;;;1936830;73;21583;-76
2023/05/05 06:47:07;;;;;;;12.07;10.55;;;38.60;51.80;;;;;;1937133;73;21127;-76
2023/05/05 06:49:38;;;;;;;13.60;10.53;;;38.70;51.90;;;;;;1944166;73;21149;-75
2023/05/05 06:52:10;;;;;;;15.23;12.33;;;38.70;51.60;;;;;;1942629;73;21112;-75
2023/05/05 06:54:41;;;;;;;17.65;11.25;;;38.80;52.20;;;;;;1936882;73;21193;-75
2023/05/05 06:57:12;;;;;;;16.17;11.90;;;38.80;51.50;;;;;;1849800;76;21211;-75
2023/05/05 06:59:43;;;;;;;11.95;9.88;;;39.00;51.00;;;;;;1899957;75;21229;-76
2023/05/05 07:02:15;;;;;;;13.25;10.75;;;39.00;50.80;;;;;;1917097;74;21046;-76
2023/05/05 07:04:46;;;;;;;13.50;11.10;;;39.00;50.50;;;;;;1909159;74;21120;-76
2023/05/05 07:07:18;;;;;;;14.25;10.58;;;39.00;50.30;;;;;;1916714;74;21053;-77
2023/05/05 07:09:49;;;;;;;12.93;10.75;;;39.10;50.00;;;;;;1903153;74;21730;-76
2023/05/05 07:12:21;;;;;;;20.80;12.20;;;39.00;49.90;;;;;;1859357;77;21077;-76
2023/05/05 07:14:52;;;;;;;15.70;11.45;;;39.00;50.60;;;;;;1902871;74;21521;-75
2023/05/05 07:17:23;;;;;;;15.85;11.70;;;39.10;50.70;;;;;;1900886;74;21705;-76
2023/05/05 07:19:55;;;;;;;17.15;11.22;;;39.10;50.10;;;;;;1901859;75;21120;-74
2023/05/05 07:22:26;;;;;;;17.55;10.40;;;39.10;49.40;;;;;;1900457;75;21608;-75
2023/05/05 07:24:57;;;;;;;14.75;10.48;;;39.10;50.00;;;;;;1900638;74;21688;-76
2023/05/05 07:27:29;;;;;;;17.00;11.00;;;39.10;49.20;;;;;;1902384;74;21209;-78
2023/05/05 07:30:00;;;;;;;17.37;11.25;;;39.00;50.00;;;;;;1903471;75;21744;-76
2023/05/05 07:32:32;;;;;;;15.23;11.10;;;39.00;50.80;;;;;;1916420;74;21135;-77
2023/05/05 07:35:04;;;;;;;13.50;10.70;;;39.00;50.60;;;;;;1922759;74;21107;-75
2023/05/05 07:37:36;;;;;;;17.10;11.20;;;39.10;50.90;;;;;;1912630;74;21681;-76
2023/05/05 07:40:08;;;;;;;13.72;11.00;;;39.10;50.50;;;;;;1902122;74;21176;-75
2023/05/05 07:42:43;;;;;;;11.83;10.20;;;39.10;50.60;;;;;;1901212;74;21237;-74
2023/05/05 07:45:14;;;;;;;14.73;10.53;;;39.10;50.80;;;;;;1919569;74;21156;-76
2023/05/05 07:47:46;;;;;;;16.70;11.18;;;39.10;51.00;;;;;;1904454;74;21128;-76
2023/05/05 07:50:17;;;;;;;14.33;10.90;;;39.10;50.80;;;;;;1902051;75;21631;-75
2023/05/05 07:52:49;;;;;;;13.88;10.70;;;39.10;49.80;;;;;;1900339;75;22152;-75
2023/05/05 07:55:21;;;;;;;15.45;11.12;;;39.10;51.00;;;;;;1898409;74;21105;-78
2023/05/05 07:57:52;;;;;;;14.80;10.65;;;39.00;50.90;;;;;;1914629;74;21241;-76
2023/05/05 08:00:23;;;;;;;14.33;11.53;;;39.00;50.90;;;;;;1912995;75;21245;-76
2023/05/05 08:02:55;;;;;;;14.85;10.48;;;38.90;51.20;;;;;;1912891;75;21127;-78
2023/05/05 08:05:26;;;;;;;12.35;10.43;;;39.00;50.60;;;;;;1913227;73;22065;-75
2023/05/05 08:07:58;;;;;;;17.62;9.98;;;38.90;50.90;;;;;;1913219;75;21131;-76
2023/05/05 08:10:30;;;;;;;15.65;11.40;;;39.00;51.20;;;;;;1912817;75;21529;-76
2023/05/05 08:13:02;;;;;;;17.48;11.05;;;39.00;51.20;;;;;;1915981;75;21124;-76
2023/05/05 08:15:35;;;;;;;19.12;10.60;;;39.00;51.50;;;;;;1916294;75;21101;-74
2023/05/05 08:18:06;;;;;;;14.38;11.25;;;39.10;50.70;;;;;;1915659;75;21081;-74
2023/05/05 08:20:40;;;;;;;12.47;10.55;;;39.10;50.40;;;;;;1915010;75;21144;-76
2023/05/05 08:23:12;;;;;;;12.75;10.68;;;39.00;50.70;;;;;;1913430;75;21586;-76
2023/05/05 08:25:44;;;;;;;14.10;11.03;;;39.00;50.70;;;;;;1913362;75;21132;-75
2023/05/05 08:28:16;;;;;;;13.10;10.60;;;38.90;50.50;;;;;;1913092;75;21880;-77
2023/05/05 08:30:48;;;;;;;13.80;11.10;;;38.90;50.50;;;;;;1923477;74;21654;-75
2023/05/05 08:33:20;;;;;;;10.93;9.70;;;38.90;50.40;;;;;;1923632;74;21170;-74
2023/05/05 08:35:51;;;;;;;12.58;10.28;;;38.90;51.60;;;;;;1913073;75;21128;-74
2023/05/05 08:38:23;;;;;;;13.80;10.43;;;38.90;50.70;;;;;;1914022;74;21209;-74
2023/05/05 08:40:55;;;;;;;13.25;11.20;;;38.80;50.80;;;;;;1923936;74;21549;-74
2023/05/05 08:43:26;;;;;;;14.53;10.70;;;38.80;51.20;;;;;;1913692;74;21142;-74
2023/05/05 08:45:58;;;;;;;11.33;9.98;;;38.70;50.60;;;;;;1913014;74;21525;-75
2023/05/05 08:48:32;;;;;;;12.13;9.98;;;38.70;50.80;;;;;;1914128;74;21058;-75
2023/05/05 08:51:05;;;;;;;13.93;9.75;;;38.60;51.00;;;;;;1918791;74;21588;-76
2023/05/05 08:53:57;;;;;;;13.00;9.88;;;38.60;51.10;;;;;;1915960;74;21049;-76
2023/05/05 08:56:33;;;;;;;15.65;11.43;;;38.50;51.40;;;;;;1889378;75;21148;-75
2023/05/05 08:59:06;;;;;;;13.58;9.80;;;38.40;52.00;;;;;;1903268;75;21156;-77
2023/05/05 09:01:37;;;;;;;11.18;9.60;;;38.40;52.20;;;;;;1903665;74;21188;-77
2023/05/05 09:04:10;;;;;;;13.98;9.45;;;38.30;52.00;;;;;;1901536;74;21058;-76
2023/05/05 09:06:41;;;;;;;15.18;10.20;;;38.30;52.10;;;;;;1903262;75;21656;-76
2023/05/05 09:09:13;;;;;;;16.70;10.23;;;38.30;51.90;;;;;;1908853;74;21053;-76
2023/05/05 09:11:46;;;;;;;19.37;10.35;;;38.30;51.20;;;;;;1868270;75;21186;-76
2023/05/05 09:14:17;;;;;;;16.77;10.03;;;38.30;51.30;;;;;;1903074;74;21069;-78
2023/05/05 09:16:49;;;;;;;12.55;10.40;;;38.30;51.30;;;;;;1926739;74;21061;-75
2023/05/05 09:19:21;;;;;;;15.55;9.83;;;38.30;51.20;;;;;;1903430;74;21131;-76
2023/05/05 09:21:52;;;;;;;13.30;10.15;;;38.30;51.80;;;;;;1900931;74;21176;-77
2023/05/05 09:24:23;;;;;;;19.37;11.35;;;38.30;51.70;;;;;;1902717;74;21104;-77
2023/05/05 09:26:54;;;;;;;13.30;10.65;;;38.30;52.00;;;;;;1901729;74;21528;-77
2023/05/05 09:29:27;;;;;;;13.62;10.13;;;38.30;51.80;;;;;;1907394;74;21248;-75
2023/05/05 09:32:07;;;;;;;14.13;10.25;;;38.30;51.20;;;;;;1902851;74;21187;-75
2023/05/05 09:34:36;;;;;;;11.35;9.78;;;38.30;51.80;;;;;;1900957;75;21199;-75
2023/05/05 09:37:07;;;;;;;13.25;10.08;;;38.20;52.60;;;;;;1902750;75;21097;-76
2023/05/05 09:39:41;;;;;;;11.73;9.73;;;38.20;51.40;;;;;;1900911;74;21137;-77
2023/05/05 09:42:21;;;;;;;11.63;10.03;;;38.20;51.90;;;;;;1904377;74;21162;-76
2023/05/05 09:44:53;;;;;;;16.27;9.65;;;38.10;52.10;;;;;;1905988;74;21281;-77
2023/05/05 09:47:35;;;;;;;14.78;9.93;;;38.10;52.10;;;;;;1906349;74;21249;-76
2023/05/05 09:50:09;;;;;;;13.60;9.55;;;38.00;52.20;;;;;;1908920;74;21163;-77
2023/05/05 09:52:40;;;;;;;12.30;10.00;;;38.00;52.00;;;;;;1905819;74;21080;-75
2023/05/05 09:55:20;;;;;;;12.53;9.68;;;37.90;52.00;;;;;;1883755;75;21112;-75
2023/05/05 09:57:52;;;;;;;16.05;9.95;;;38.00;51.80;;;;;;1910392;74;21088;-78
2023/05/05 10:00:25;;;;;;;15.43;9.90;;;37.90;51.70;;;;;;1916308;74;21116;-78
2023/05/05 10:02:59;;;;;;;16.15;10.43;;;37.90;52.00;;;;;;1916457;73;21110;-78
2023/05/05 10:05:31;;;;;;;14.93;9.50;;;37.90;51.90;;;;;;1913228;74;21592;-75
2023/05/05 10:08:04;;;;;;;11.75;9.30;;;37.90;51.60;;;;;;1922005;73;21112;-76
2023/05/05 10:10:36;;;;;;;14.15;10.30;;;37.90;51.70;;;;;;1916457;74;21119;-75
2023/05/05 10:13:07;;;;;;;12.63;9.88;;;37.80;52.10;;;;;;1912875;74;21159;-74
2023/05/05 10:15:39;;;;;;;14.95;10.13;;;37.80;52.10;;;;;;1913667;74;21088;-75
2023/05/05 10:18:12;;;;;;;11.60;10.08;;;37.70;51.90;;;;;;1914888;75;21175;-75
2023/05/05 10:20:44;;;;;;;13.20;9.55;;;37.70;52.30;;;;;;1916936;74;21056;-75
2023/05/05 10:23:18;;;;;;;14.60;11.48;;;37.70;52.30;;;;;;1916313;74;21096;-77
2023/05/05 10:26:05;;;;;;;18.07;10.58;;;37.70;52.40;;;;;;1920164;74;21075;-76
2023/05/05 10:28:39;;;;;;;15.98;10.32;;;37.60;52.50;;;;;;1930113;74;21611;-76
2023/05/05 10:31:21;;;;;;;13.22;10.15;;;37.60;52.60;;;;;;1913985;74;21116;-76
2023/05/05 10:33:56;;;;;;;14.85;10.08;;;37.60;52.80;;;;;;1919348;74;21627;-77
2023/05/05 10:36:29;;;;;;;14.85;10.48;;;37.60;52.90;;;;;;1851003;75;21187;-76
2023/05/05 10:39:01;;;;;;;13.93;10.40;;;37.60;53.10;;;;;;1915093;74;21143;-76
2023/05/05 10:41:34;;;;;;;14.55;9.90;;;37.60;53.10;;;;;;1934301;74;21638;-78
2023/05/05 10:44:06;;;;;;;12.73;10.45;;;37.60;53.40;;;;;;1917497;74;22088;-76
2023/05/05 10:46:38;;;;;;;19.60;10.23;;;37.60;53.50;;;;;;1920534;74;21127;-76
2023/05/05 10:49:41;;;;;;;15.18;11.05;;;37.50;53.70;;;;;;1921842;74;21665;-77
2023/05/05 10:52:20;;;;;;;14.65;10.72;;;37.50;53.80;;;;;;1917398;74;21123;-78
2023/05/05 10:55:14;;;;;;;14.85;10.13;;;37.50;53.90;;;;;;1915198;74;21197;-77
2023/05/05 10:57:48;;;;;;;16.55;10.88;;;37.40;54.20;;;;;;1918550;73;21117;-78
2023/05/05 11:00:42;;;;;;;15.70;11.10;;;37.40;54.30;;;;;;1928655;74;21159;-79
2023/05/05 11:03:19;;;;;;;17.50;9.63;;;37.40;54.40;;;;;;1877539;75;21163;-79
2023/05/05 11:06:28;;;;;;;15.68;10.50;;;37.30;54.50;;;;;;1873342;76;21217;-85
2023/05/05 11:09:30;;;;;;;16.02;11.28;;;37.30;54.70;;;;;;1867280;76;21076;-85
2023/05/05 11:12:12;;;;;;;15.03;11.63;;;37.40;54.90;;;;;;1858047;76;21143;-85
2023/05/05 11:14:41;;;;;;;13.03;11.08;;;37.30;55.00;;;;;;1853421;76;21207;-83
2023/05/05 11:17:46;;;;;;;16.87;11.25;;;37.20;55.00;;;;;;1873445;76;21142;-84
2023/05/05 11:20:18;;;;;;;16.90;11.60;;;37.20;55.00;;;;;;1879428;76;21745;-83
2023/05/05 11:23:06;;;;;;;19.67;11.35;;;37.20;55.30;;;;;;1883600;75;21134;-85
2023/05/05 11:25:43;;;;;;;17.07;12.50;;;37.20;55.40;;;;;;1872862;76;21158;-84
2023/05/05 11:28:18;;;;;;;21.30;12.35;;;37.10;55.50;;;;;;1961146;73;21135;-83
2023/05/05 11:30:59;;;;;;;18.82;12.95;;;37.20;55.80;;;;;;1931264;73;21195;-84
2023/05/05 11:33:37;;;;;;;19.20;14.43;;;37.10;55.90;;;;;;1924306;74;21147;-84
2023/05/05 11:36:13;;;;;;;21.87;13.58;;;37.10;56.10;;;;;;1931179;73;21201;-83
2023/05/05 11:39:06;;;;;;;16.20;12.65;;;37.10;56.10;;;;;;1958002;73;21140;-85
2023/05/05 11:41:40;;;;;;;17.50;12.13;;;37.00;56.20;;;;;;1943894;73;21611;-82
2023/05/05 11:44:32;;;;;;;17.48;12.33;;;37.00;56.40;;;;;;1923524;74;21163;-84
2023/05/05 11:47:08;;;;;;;16.07;12.88;;;36.90;56.40;;;;;;1931156;73;21202;-84
2023/05/05 11:49:39;;;;;;;16.42;12.50;;;36.90;56.70;;;;;;1923775;74;21099;-85
2023/05/05 11:52:14;;;;;;;16.80;11.83;;;36.80;56.80;;;;;;1931571;73;21134;-85
2023/05/05 11:54:49;;;;;;;16.73;12.30;;;36.80;56.90;;;;;;1937618;73;21220;-84
2023/05/05 11:57:25;;;;;;;22.55;13.13;;;36.80;57.10;;;;;;1930776;73;21132;-83
2023/05/05 11:59:59;;;;;;;17.27;13.60;;;36.80;57.40;;;;;;1918063;74;21197;-83
2023/05/05 12:02:33;;;;;;;19.12;11.63;;;36.60;57.50;;;;;;1913668;75;21140;-83
2023/05/05 12:05:04;;;;;;;14.65;11.90;;;36.60;57.50;;;;;;1915704;74;21084;-84
2023/05/05 12:07:36;;;;;;;15.93;12.13;;;36.60;57.40;;;;;;1948209;73;21153;-84
2023/05/05 12:10:12;;;;;;;16.75;11.50;;;36.50;57.30;;;;;;1944078;73;21132;-84
2023/05/05 12:12:41;;;;;;;14.10;11.25;;;36.50;57.40;;;;;;1914052;74;21512;-84
2023/05/05 12:15:12;;;;;;;16.55;11.40;;;36.50;57.60;;;;;;1917575;74;21357;-84
2023/05/05 12:17:45;;;;;;;16.10;12.28;;;36.40;57.50;;;;;;1919664;74;21183;-84
2023/05/05 12:20:26;;;;;;;19.07;12.35;;;36.40;57.60;;;;;;1913678;75;21292;-83
2023/05/05 12:22:56;;;;;;;16.42;12.20;;;36.40;57.10;;;;;;1930237;73;21235;-82
2023/05/05 12:25:48;;;;;;;15.50;13.13;;;36.40;57.90;;;;;;1869113;76;21093;-84
2023/05/05 12:28:20;;;;;;;20.17;13.20;;;36.30;58.00;;;;;;1914212;74;21132;-84
2023/05/05 12:30:58;;;;;;;21.70;13.32;;;36.30;58.00;;;;;;1913908;73;21113;-84
2023/05/05 12:33:30;;;;;;;21.15;14.30;;;36.30;58.00;;;;;;1927072;74;21136;-84
2023/05/05 12:36:01;;;;;;;16.67;14.10;;;36.20;58.10;;;;;;1932233;74;21647;-84
2023/05/05 12:38:32;;;;;;;16.85;13.38;;;36.20;58.10;;;;;;1882735;74;21605;-84
2023/05/05 12:41:04;;;;;;;21.12;13.28;;;36.20;58.20;;;;;;1912924;75;21139;-84
2023/05/05 12:43:39;;;;;;;14.30;12.03;;;36.10;58.30;;;;;;1913778;75;21159;-83
2023/05/05 12:46:18;;;;;;;15.35;12.90;;;36.20;58.40;;;;;;1913913;75;21158;-84
2023/05/05 12:48:47;;;;;;;16.90;13.28;;;36.10;58.40;;;;;;1924501;74;21163;-83
2023/05/05 12:51:22;;;;;;;18.50;11.83;;;36.10;58.50;;;;;;1927888;73;21201;-85
2023/05/05 12:54:08;;;;;;;13.58;11.33;;;36.10;58.50;;;;;;1914504;75;21120;-85
2023/05/05 12:56:44;;;;;;;14.47;11.93;;;36.10;58.60;;;;;;1914576;75;21073;-84
2023/05/05 12:59:24;;;;;;;15.05;12.15;;;36.10;58.60;;;;;;1926331;73;21077;-84
2023/05/05 13:01:57;;;;;;;19.45;13.45;;;36.10;58.60;;;;;;1907246;74;21124;-84
2023/05/05 13:04:32;;;;;;;24.72;14.10;;;36.10;58.50;;;;;;1923083;74;21113;-83
2023/05/05 13:07:14;;;;;;;19.82;14.53;;;36.10;59.40;;;;;;1877139;75;21151;-85